sensor_id;sensor_type;location;lat;lon;timestamp;P1;durP1;ratioP1;P2;durP2;ratioP2
76667;SDS011;65585;51.166;16.922;2023-10-31T00:02:25;5.18;;;4.10;;
76667;SDS011;65585;51.166;16.922;2023-10-31T00:04:51;7.07;;;3.97;;
76667;SDS011;65585;51.166;16.922;2023-10-31T00:07:17;7.15;;;4.50;;
76667;SDS011;65585;51.166;16.922;2023-10-31T00:09:43;10.75;;;4.47;;
76667;SDS011;65585;51.166;16.922;2023-10-31T00:12:09;8.68;;;4.47;;
76667;SDS011;65585;51.166;16.922;2023-10-31T00:14:35;9.65;;;5.05;;
76667;SDS011;65585;51.166;16.922;2023-10-31T00:17:01;7.30;;;4.20;;
76667;SDS011;65585;51.166;16.922;2023-10-31T00:19:27;7.35;;;3.92;;
76667;SDS011;65585;51.166;16.922;2023-10-31T00:21:53;8.13;;;4.00;;
76667;SDS011;65585;51.166;16.922;2023-10-31T00:24:19;9.43;;;4.07;;
76667;SDS011;65585;51.166;16.922;2023-10-31T00:26:45;7.70;;;4.47;;
76667;SDS011;65585;51.166;16.922;2023-10-31T00:29:11;6.90;;;4.03;;
76667;SDS011;65585;51.166;16.922;2023-10-31T00:31:37;7.03;;;4.20;;
76667;SDS011;65585;51.166;16.922;2023-10-31T00:34:06;7.82;;;4.22;;
76667;SDS011;65585;51.166;16.922;2023-10-31T00:36:33;6.53;;;3.92;;
76667;SDS011;65585;51.166;16.922;2023-10-31T00:38:59;7.82;;;4.07;;
76667;SDS011;65585;51.166;16.922;2023-10-31T00:41:25;6.00;;;3.90;;
76667;SDS011;65585;51.166;16.922;2023-10-31T00:43:51;8.80;;;4.45;;
76667;SDS011;65585;51.166;16.922;2023-10-31T00:46:17;6.60;;;4.00;;
76667;SDS011;65585;51.166;16.922;2023-10-31T00:48:43;7.47;;;4.20;;
76667;SDS011;65585;51.166;16.922;2023-10-31T00:51:09;7.35;;;4.57;;
76667;SDS011;65585;51.166;16.922;2023-10-31T00:53:35;6.70;;;4.30;;
76667;SDS011;65585;51.166;16.922;2023-10-31T00:56:01;7.55;;;4.00;;
76667;SDS011;65585;51.166;16.922;2023-10-31T00:58:27;7.20;;;4.25;;
76667;SDS011;65585;51.166;16.922;2023-10-31T01:00:53;7.68;;;4.22;;
76667;SDS011;65585;51.166;16.922;2023-10-31T01:03:19;7.18;;;3.83;;
76667;SDS011;65585;51.166;16.922;2023-10-31T01:05:45;6.57;;;4.32;;
76667;SDS011;65585;51.166;16.922;2023-10-31T01:08:11;6.57;;;4.45;;
76667;SDS011;65585;51.166;16.922;2023-10-31T01:10:37;4.97;;;4.03;;
76667;SDS011;65585;51.166;16.922;2023-10-31T01:13:03;7.45;;;4.07;;
76667;SDS011;65585;51.166;16.922;2023-10-31T01:15:29;7.38;;;4.70;;
76667;SDS011;65585;51.166;16.922;2023-10-31T01:17:55;7.43;;;4.43;;
76667;SDS011;65585;51.166;16.922;2023-10-31T01:20:22;6.95;;;4.30;;
76667;SDS011;65585;51.166;16.922;2023-10-31T01:22:48;8.32;;;4.60;;
76667;SDS011;65585;51.166;16.922;2023-10-31T01:25:14;5.43;;;3.85;;
76667;SDS011;65585;51.166;16.922;2023-10-31T01:27:40;9.02;;;4.93;;
76667;SDS011;65585;51.166;16.922;2023-10-31T01:30:07;12.27;;;4.78;;
76667;SDS011;65585;51.166;16.922;2023-10-31T01:32:33;8.27;;;4.30;;
76667;SDS011;65585;51.166;16.922;2023-10-31T01:35:02;7.57;;;3.78;;
76667;SDS011;65585;51.166;16.922;2023-10-31T01:37:29;8.98;;;4.80;;
76667;SDS011;65585;51.166;16.922;2023-10-31T01:39:55;8.15;;;4.70;;
76667;SDS011;65585;51.166;16.922;2023-10-31T01:42:21;9.40;;;5.07;;
76667;SDS011;65585;51.166;16.922;2023-10-31T01:44:47;7.93;;;4.88;;
76667;SDS011;65585;51.166;16.922;2023-10-31T01:47:13;8.43;;;4.30;;
76667;SDS011;65585;51.166;16.922;2023-10-31T01:49:39;6.63;;;4.35;;
76667;SDS011;65585;51.166;16.922;2023-10-31T01:52:06;9.15;;;4.68;;
76667;SDS011;65585;51.166;16.922;2023-10-31T01:54:32;8.18;;;4.45;;
76667;SDS011;65585;51.166;16.922;2023-10-31T01:56:59;6.78;;;4.20;;
76667;SDS011;65585;51.166;16.922;2023-10-31T01:59:26;5.10;;;4.15;;
76667;SDS011;65585;51.166;16.922;2023-10-31T02:01:52;8.38;;;4.78;;
76667;SDS011;65585;51.166;16.922;2023-10-31T02:04:19;9.13;;;4.55;;
76667;SDS011;65585;51.166;16.922;2023-10-31T02:06:44;5.75;;;4.47;;
76667;SDS011;65585;51.166;16.922;2023-10-31T02:09:11;8.27;;;4.50;;
76667;SDS011;65585;51.166;16.922;2023-10-31T02:11:37;9.57;;;4.25;;
76667;SDS011;65585;51.166;16.922;2023-10-31T02:14:03;5.90;;;4.55;;
76667;SDS011;65585;51.166;16.922;2023-10-31T02:16:29;5.85;;;3.92;;
76667;SDS011;65585;51.166;16.922;2023-10-31T02:18:55;6.68;;;4.03;;
76667;SDS011;65585;51.166;16.922;2023-10-31T02:21:21;7.90;;;4.30;;
76667;SDS011;65585;51.166;16.922;2023-10-31T02:24:00;10.02;;;4.30;;
76667;SDS011;65585;51.166;16.922;2023-10-31T02:28:57;7.43;;;4.38;;
76667;SDS011;65585;51.166;16.922;2023-10-31T02:31:23;12.48;;;3.97;;
76667;SDS011;65585;51.166;16.922;2023-10-31T02:33:49;8.65;;;4.40;;
76667;SDS011;65585;51.166;16.922;2023-10-31T02:36:15;6.18;;;3.85;;
76667;SDS011;65585;51.166;16.922;2023-10-31T02:38:41;8.82;;;4.07;;
76667;SDS011;65585;51.166;16.922;2023-10-31T02:41:07;5.97;;;3.75;;
76667;SDS011;65585;51.166;16.922;2023-10-31T02:43:33;6.38;;;3.92;;
76667;SDS011;65585;51.166;16.922;2023-10-31T02:45:59;5.70;;;3.70;;
76667;SDS011;65585;51.166;16.922;2023-10-31T02:48:25;5.63;;;3.92;;
76667;SDS011;65585;51.166;16.922;2023-10-31T02:50:51;7.38;;;4.13;;
76667;SDS011;65585;51.166;16.922;2023-10-31T02:53:18;8.75;;;4.22;;
76667;SDS011;65585;51.166;16.922;2023-10-31T02:55:44;6.97;;;4.18;;
76667;SDS011;65585;51.166;16.922;2023-10-31T02:58:10;5.03;;;3.65;;
76667;SDS011;65585;51.166;16.922;2023-10-31T03:00:36;6.60;;;3.33;;
76667;SDS011;65585;51.166;16.922;2023-10-31T03:03:03;7.85;;;3.75;;
76667;SDS011;65585;51.166;16.922;2023-10-31T03:05:29;5.03;;;3.35;;
76667;SDS011;65585;51.166;16.922;2023-10-31T03:07:55;4.78;;;3.40;;
76667;SDS011;65585;51.166;16.922;2023-10-31T03:10:22;6.50;;;3.92;;
76667;SDS011;65585;51.166;16.922;2023-10-31T03:12:48;5.68;;;3.83;;
76667;SDS011;65585;51.166;16.922;2023-10-31T03:15:13;6.50;;;3.17;;
76667;SDS011;65585;51.166;16.922;2023-10-31T03:17:39;6.38;;;4.00;;
76667;SDS011;65585;51.166;16.922;2023-10-31T03:20:05;6.15;;;4.20;;
76667;SDS011;65585;51.166;16.922;2023-10-31T03:22:32;5.03;;;3.67;;
76667;SDS011;65585;51.166;16.922;2023-10-31T03:24:57;8.00;;;3.92;;
76667;SDS011;65585;51.166;16.922;2023-10-31T03:27:24;6.68;;;3.70;;
76667;SDS011;65585;51.166;16.922;2023-10-31T03:29:49;4.93;;;3.58;;
76667;SDS011;65585;51.166;16.922;2023-10-31T03:32:15;7.00;;;3.65;;
76667;SDS011;65585;51.166;16.922;2023-10-31T03:34:41;5.10;;;3.53;;
76667;SDS011;65585;51.166;16.922;2023-10-31T03:37:07;4.65;;;3.33;;
76667;SDS011;65585;51.166;16.922;2023-10-31T03:39:33;6.35;;;3.38;;
76667;SDS011;65585;51.166;16.922;2023-10-31T03:41:59;5.65;;;3.28;;
76667;SDS011;65585;51.166;16.922;2023-10-31T03:44:25;6.18;;;3.33;;
76667;SDS011;65585;51.166;16.922;2023-10-31T03:46:51;5.20;;;3.05;;
76667;SDS011;65585;51.166;16.922;2023-10-31T03:49:17;4.38;;;2.95;;
76667;SDS011;65585;51.166;16.922;2023-10-31T03:51:43;4.45;;;2.85;;
76667;SDS011;65585;51.166;16.922;2023-10-31T03:54:09;3.83;;;2.78;;
76667;SDS011;65585;51.166;16.922;2023-10-31T03:56:42;3.55;;;2.42;;
76667;SDS011;65585;51.166;16.922;2023-10-31T03:59:09;6.57;;;3.00;;
76667;SDS011;65585;51.166;16.922;2023-10-31T04:01:35;5.03;;;2.75;;
76667;SDS011;65585;51.166;16.922;2023-10-31T04:04:01;6.32;;;2.67;;
76667;SDS011;65585;51.166;16.922;2023-10-31T04:06:28;5.28;;;2.75;;
76667;SDS011;65585;51.166;16.922;2023-10-31T04:08:54;6.63;;;2.60;;
76667;SDS011;65585;51.166;16.922;2023-10-31T04:11:20;4.72;;;2.55;;
76667;SDS011;65585;51.166;16.922;2023-10-31T04:13:46;4.60;;;2.40;;
76667;SDS011;65585;51.166;16.922;2023-10-31T04:16:12;5.32;;;2.40;;
76667;SDS011;65585;51.166;16.922;2023-10-31T04:18:38;4.82;;;2.40;;
76667;SDS011;65585;51.166;16.922;2023-10-31T04:21:05;4.63;;;2.22;;
76667;SDS011;65585;51.166;16.922;2023-10-31T04:23:31;7.25;;;2.28;;
76667;SDS011;65585;51.166;16.922;2023-10-31T04:25:58;4.97;;;2.50;;
76667;SDS011;65585;51.166;16.922;2023-10-31T04:28:23;3.45;;;2.03;;
76667;SDS011;65585;51.166;16.922;2023-10-31T04:30:50;5.93;;;2.40;;
76667;SDS011;65585;51.166;16.922;2023-10-31T04:33:15;3.65;;;2.47;;
76667;SDS011;65585;51.166;16.922;2023-10-31T04:35:42;4.05;;;2.42;;
76667;SDS011;65585;51.166;16.922;2023-10-31T04:38:07;3.22;;;2.10;;
76667;SDS011;65585;51.166;16.922;2023-10-31T04:40:34;3.35;;;2.40;;
76667;SDS011;65585;51.166;16.922;2023-10-31T04:43:00;6.15;;;2.40;;
76667;SDS011;65585;51.166;16.922;2023-10-31T04:45:27;6.30;;;2.33;;
76667;SDS011;65585;51.166;16.922;2023-10-31T04:47:53;5.05;;;2.40;;
76667;SDS011;65585;51.166;16.922;2023-10-31T04:50:19;8.48;;;2.95;;
76667;SDS011;65585;51.166;16.922;2023-10-31T04:52:45;6.95;;;2.40;;
76667;SDS011;65585;51.166;16.922;2023-10-31T04:55:11;4.55;;;2.10;;
76667;SDS011;65585;51.166;16.922;2023-10-31T04:57:37;3.25;;;2.20;;
76667;SDS011;65585;51.166;16.922;2023-10-31T05:00:03;4.32;;;1.90;;
76667;SDS011;65585;51.166;16.922;2023-10-31T05:02:32;6.05;;;2.30;;
76667;SDS011;65585;51.166;16.922;2023-10-31T05:04:58;4.45;;;2.50;;
76667;SDS011;65585;51.166;16.922;2023-10-31T05:07:24;3.83;;;2.35;;
76667;SDS011;65585;51.166;16.922;2023-10-31T05:09:50;3.20;;;2.10;;
76667;SDS011;65585;51.166;16.922;2023-10-31T05:12:16;5.88;;;2.65;;
76667;SDS011;65585;51.166;16.922;2023-10-31T05:14:42;3.30;;;2.17;;
76667;SDS011;65585;51.166;16.922;2023-10-31T05:17:08;3.42;;;2.53;;
76667;SDS011;65585;51.166;16.922;2023-10-31T05:19:34;8.65;;;2.92;;
76667;SDS011;65585;51.166;16.922;2023-10-31T05:22:00;4.05;;;2.08;;
76667;SDS011;65585;51.166;16.922;2023-10-31T05:24:27;5.05;;;2.35;;
76667;SDS011;65585;51.166;16.922;2023-10-31T05:26:52;3.88;;;2.22;;
76667;SDS011;65585;51.166;16.922;2023-10-31T05:29:18;6.93;;;2.70;;
76667;SDS011;65585;51.166;16.922;2023-10-31T05:31:44;8.10;;;2.33;;
76667;SDS011;65585;51.166;16.922;2023-10-31T05:34:10;5.28;;;2.60;;
76667;SDS011;65585;51.166;16.922;2023-10-31T05:36:36;5.97;;;3.33;;
76667;SDS011;65585;51.166;16.922;2023-10-31T05:39:02;7.03;;;2.70;;
76667;SDS011;65585;51.166;16.922;2023-10-31T05:41:29;5.45;;;2.28;;
76667;SDS011;65585;51.166;16.922;2023-10-31T05:43:55;6.65;;;2.60;;
76667;SDS011;65585;51.166;16.922;2023-10-31T05:46:21;4.30;;;2.65;;
76667;SDS011;65585;51.166;16.922;2023-10-31T05:48:47;6.43;;;2.90;;
76667;SDS011;65585;51.166;16.922;2023-10-31T05:51:14;4.50;;;2.88;;
76667;SDS011;65585;51.166;16.922;2023-10-31T05:53:43;8.15;;;3.00;;
76667;SDS011;65585;51.166;16.922;2023-10-31T05:56:10;7.30;;;3.35;;
76667;SDS011;65585;51.166;16.922;2023-10-31T05:58:37;7.57;;;3.15;;
76667;SDS011;65585;51.166;16.922;2023-10-31T06:01:04;7.13;;;3.00;;
76667;SDS011;65585;51.166;16.922;2023-10-31T06:03:30;5.95;;;3.20;;
76667;SDS011;65585;51.166;16.922;2023-10-31T06:05:56;6.82;;;3.40;;
76667;SDS011;65585;51.166;16.922;2023-10-31T06:08:22;5.18;;;3.15;;
76667;SDS011;65585;51.166;16.922;2023-10-31T06:10:50;5.78;;;3.47;;
76667;SDS011;65585;51.166;16.922;2023-10-31T06:13:16;5.95;;;3.50;;
76667;SDS011;65585;51.166;16.922;2023-10-31T06:15:42;5.00;;;3.75;;
76667;SDS011;65585;51.166;16.922;2023-10-31T06:18:08;5.32;;;3.40;;
76667;SDS011;65585;51.166;16.922;2023-10-31T06:20:34;5.07;;;3.15;;
76667;SDS011;65585;51.166;16.922;2023-10-31T06:23:01;5.40;;;4.18;;
76667;SDS011;65585;51.166;16.922;2023-10-31T06:25:31;5.32;;;3.50;;
76667;SDS011;65585;51.166;16.922;2023-10-31T06:27:57;5.75;;;3.67;;
76667;SDS011;65585;51.166;16.922;2023-10-31T06:30:23;6.50;;;4.25;;
76667;SDS011;65585;51.166;16.922;2023-10-31T06:32:53;6.28;;;3.97;;
76667;SDS011;65585;51.166;16.922;2023-10-31T06:35:19;7.22;;;4.60;;
76667;SDS011;65585;51.166;16.922;2023-10-31T06:37:45;8.55;;;4.30;;
76667;SDS011;65585;51.166;16.922;2023-10-31T06:40:11;6.20;;;4.53;;
76667;SDS011;65585;51.166;16.922;2023-10-31T06:42:37;13.95;;;5.97;;
76667;SDS011;65585;51.166;16.922;2023-10-31T06:45:03;8.07;;;6.07;;
76667;SDS011;65585;51.166;16.922;2023-10-31T06:47:30;7.90;;;6.05;;
76667;SDS011;65585;51.166;16.922;2023-10-31T06:49:56;9.65;;;5.03;;
76667;SDS011;65585;51.166;16.922;2023-10-31T06:52:22;7.82;;;4.43;;
76667;SDS011;65585;51.166;16.922;2023-10-31T06:54:48;8.05;;;4.97;;
76667;SDS011;65585;51.166;16.922;2023-10-31T06:57:14;6.93;;;4.68;;
76667;SDS011;65585;51.166;16.922;2023-10-31T06:59:41;6.32;;;4.82;;
76667;SDS011;65585;51.166;16.922;2023-10-31T07:02:07;6.60;;;4.45;;
76667;SDS011;65585;51.166;16.922;2023-10-31T07:04:37;7.43;;;4.03;;
76667;SDS011;65585;51.166;16.922;2023-10-31T07:07:03;9.35;;;4.55;;
76667;SDS011;65585;51.166;16.922;2023-10-31T07:09:29;6.05;;;4.28;;
76667;SDS011;65585;51.166;16.922;2023-10-31T07:11:55;6.07;;;4.40;;
76667;SDS011;65585;51.166;16.922;2023-10-31T07:14:21;5.43;;;4.30;;
76667;SDS011;65585;51.166;16.922;2023-10-31T07:16:47;5.72;;;4.30;;
76667;SDS011;65585;51.166;16.922;2023-10-31T07:19:14;11.48;;;5.03;;
76667;SDS011;65585;51.166;16.922;2023-10-31T07:21:40;8.15;;;5.10;;
76667;SDS011;65585;51.166;16.922;2023-10-31T07:24:06;8.27;;;4.60;;
76667;SDS011;65585;51.166;16.922;2023-10-31T07:26:34;7.00;;;3.80;;
76667;SDS011;65585;51.166;16.922;2023-10-31T07:29:01;4.45;;;3.40;;
76667;SDS011;65585;51.166;16.922;2023-10-31T07:31:27;5.07;;;3.03;;
76667;SDS011;65585;51.166;16.922;2023-10-31T07:33:53;6.70;;;3.53;;
76667;SDS011;65585;51.166;16.922;2023-10-31T07:36:19;4.85;;;2.83;;
76667;SDS011;65585;51.166;16.922;2023-10-31T07:38:45;4.53;;;3.47;;
76667;SDS011;65585;51.166;16.922;2023-10-31T07:41:11;4.25;;;3.33;;
76667;SDS011;65585;51.166;16.922;2023-10-31T07:43:37;3.85;;;2.75;;
76667;SDS011;65585;51.166;16.922;2023-10-31T07:46:03;5.93;;;3.28;;
76667;SDS011;65585;51.166;16.922;2023-10-31T07:48:29;4.50;;;2.70;;
76667;SDS011;65585;51.166;16.922;2023-10-31T07:50:55;4.75;;;3.05;;
76667;SDS011;65585;51.166;16.922;2023-10-31T07:53:21;4.80;;;2.70;;
76667;SDS011;65585;51.166;16.922;2023-10-31T07:55:48;6.57;;;2.60;;
76667;SDS011;65585;51.166;16.922;2023-10-31T07:58:14;3.53;;;2.20;;
76667;SDS011;65585;51.166;16.922;2023-10-31T08:00:40;6.32;;;2.45;;
76667;SDS011;65585;51.166;16.922;2023-10-31T08:03:06;4.10;;;2.17;;
76667;SDS011;65585;51.166;16.922;2023-10-31T08:05:32;2.97;;;2.22;;
76667;SDS011;65585;51.166;16.922;2023-10-31T08:07:58;3.08;;;2.10;;
76667;SDS011;65585;51.166;16.922;2023-10-31T08:10:24;2.92;;;2.00;;
76667;SDS011;65585;51.166;16.922;2023-10-31T08:12:50;2.55;;;2.10;;
76667;SDS011;65585;51.166;16.922;2023-10-31T08:15:16;2.45;;;1.73;;
76667;SDS011;65585;51.166;16.922;2023-10-31T08:17:42;2.75;;;2.00;;
76667;SDS011;65585;51.166;16.922;2023-10-31T08:20:08;2.78;;;1.80;;
76667;SDS011;65585;51.166;16.922;2023-10-31T08:22:36;2.28;;;1.70;;
76667;SDS011;65585;51.166;16.922;2023-10-31T08:25:03;2.80;;;1.90;;
76667;SDS011;65585;51.166;16.922;2023-10-31T08:27:29;2.55;;;2.00;;
76667;SDS011;65585;51.166;16.922;2023-10-31T08:29:55;2.95;;;2.13;;
76667;SDS011;65585;51.166;16.922;2023-10-31T08:32:21;3.58;;;2.20;;
76667;SDS011;65585;51.166;16.922;2023-10-31T08:34:50;2.53;;;1.98;;
76667;SDS011;65585;51.166;16.922;2023-10-31T08:37:15;2.60;;;1.92;;
76667;SDS011;65585;51.166;16.922;2023-10-31T08:39:42;3.10;;;2.13;;
76667;SDS011;65585;51.166;16.922;2023-10-31T08:42:07;2.50;;;1.77;;
76667;SDS011;65585;51.166;16.922;2023-10-31T08:44:35;4.03;;;2.28;;
76667;SDS011;65585;51.166;16.922;2023-10-31T08:47:03;2.60;;;2.00;;
76667;SDS011;65585;51.166;16.922;2023-10-31T08:49:30;3.30;;;2.05;;
76667;SDS011;65585;51.166;16.922;2023-10-31T08:51:55;2.47;;;1.95;;
76667;SDS011;65585;51.166;16.922;2023-10-31T08:54:21;3.70;;;1.83;;
76667;SDS011;65585;51.166;16.922;2023-10-31T08:56:47;2.55;;;1.77;;
76667;SDS011;65585;51.166;16.922;2023-10-31T08:59:13;2.30;;;1.58;;
76667;SDS011;65585;51.166;16.922;2023-10-31T09:01:39;2.50;;;1.88;;
76667;SDS011;65585;51.166;16.922;2023-10-31T09:04:05;2.55;;;1.88;;
76667;SDS011;65585;51.166;16.922;2023-10-31T09:06:31;5.15;;;2.28;;
76667;SDS011;65585;51.166;16.922;2023-10-31T09:08:57;2.67;;;2.00;;
76667;SDS011;65585;51.166;16.922;2023-10-31T09:11:23;2.35;;;1.70;;
76667;SDS011;65585;51.166;16.922;2023-10-31T09:13:49;2.33;;;1.65;;
76667;SDS011;65585;51.166;16.922;2023-10-31T09:16:15;2.35;;;1.70;;
76667;SDS011;65585;51.166;16.922;2023-10-31T09:18:41;1.88;;;1.60;;
76667;SDS011;65585;51.166;16.922;2023-10-31T09:21:08;3.95;;;1.60;;
76667;SDS011;65585;51.166;16.922;2023-10-31T09:23:35;3.13;;;1.55;;
76667;SDS011;65585;51.166;16.922;2023-10-31T09:26:02;2.00;;;1.50;;
76667;SDS011;65585;51.166;16.922;2023-10-31T09:28:30;3.88;;;1.80;;
76667;SDS011;65585;51.166;16.922;2023-10-31T09:30:56;3.72;;;1.77;;
76667;SDS011;65585;51.166;16.922;2023-10-31T09:33:22;3.65;;;1.90;;
76667;SDS011;65585;51.166;16.922;2023-10-31T09:35:47;2.85;;;1.80;;
76667;SDS011;65585;51.166;16.922;2023-10-31T09:38:13;1.95;;;1.35;;
76667;SDS011;65585;51.166;16.922;2023-10-31T09:40:39;3.30;;;1.60;;
76667;SDS011;65585;51.166;16.922;2023-10-31T09:43:05;2.60;;;1.60;;
76667;SDS011;65585;51.166;16.922;2023-10-31T09:45:31;2.90;;;1.85;;
76667;SDS011;65585;51.166;16.922;2023-10-31T09:47:58;3.17;;;1.70;;
76667;SDS011;65585;51.166;16.922;2023-10-31T09:50:25;2.65;;;1.73;;
76667;SDS011;65585;51.166;16.922;2023-10-31T09:52:51;2.72;;;1.75;;
76667;SDS011;65585;51.166;16.922;2023-10-31T09:55:18;4.40;;;1.80;;
76667;SDS011;65585;51.166;16.922;2023-10-31T09:57:45;2.63;;;1.67;;
76667;SDS011;65585;51.166;16.922;2023-10-31T10:00:11;2.58;;;1.80;;
76667;SDS011;65585;51.166;16.922;2023-10-31T10:02:37;3.10;;;2.05;;
76667;SDS011;65585;51.166;16.922;2023-10-31T10:05:04;2.85;;;1.80;;
76667;SDS011;65585;51.166;16.922;2023-10-31T10:07:31;2.63;;;2.00;;
76667;SDS011;65585;51.166;16.922;2023-10-31T10:09:59;2.97;;;2.10;;
76667;SDS011;65585;51.166;16.922;2023-10-31T10:12:26;2.55;;;1.80;;
76667;SDS011;65585;51.166;16.922;2023-10-31T10:14:52;2.28;;;1.60;;
76667;SDS011;65585;51.166;16.922;2023-10-31T10:17:21;3.60;;;1.70;;
76667;SDS011;65585;51.166;16.922;2023-10-31T10:19:47;2.10;;;1.73;;
76667;SDS011;65585;51.166;16.922;2023-10-31T10:22:14;2.70;;;1.42;;
76667;SDS011;65585;51.166;16.922;2023-10-31T10:24:40;2.22;;;1.45;;
76667;SDS011;65585;51.166;16.922;2023-10-31T10:27:08;2.20;;;1.50;;
76667;SDS011;65585;51.166;16.922;2023-10-31T10:29:34;1.45;;;1.30;;
76667;SDS011;65585;51.166;16.922;2023-10-31T10:32:04;1.67;;;1.30;;
76667;SDS011;65585;51.166;16.922;2023-10-31T10:34:31;1.70;;;1.10;;
76667;SDS011;65585;51.166;16.922;2023-10-31T10:36:57;2.67;;;1.55;;
76667;SDS011;65585;51.166;16.922;2023-10-31T10:39:23;2.08;;;1.40;;
76667;SDS011;65585;51.166;16.922;2023-10-31T10:41:53;2.85;;;1.70;;
76667;SDS011;65585;51.166;16.922;2023-10-31T10:44:23;2.45;;;1.60;;
76667;SDS011;65585;51.166;16.922;2023-10-31T10:47:09;2.55;;;1.27;;
76667;SDS011;65585;51.166;16.922;2023-10-31T10:49:37;1.92;;;1.48;;
76667;SDS011;65585;51.166;16.922;2023-10-31T10:52:17;2.17;;;1.30;;
76667;SDS011;65585;51.166;16.922;2023-10-31T10:55:43;1.98;;;1.58;;
76667;SDS011;65585;51.166;16.922;2023-10-31T10:57:52;1.75;;;1.13;;
76667;SDS011;65585;51.166;16.922;2023-10-31T11:00:30;1.90;;;1.35;;
76667;SDS011;65585;51.166;16.922;2023-10-31T11:02:57;3.38;;;1.50;;
76667;SDS011;65585;51.166;16.922;2023-10-31T11:05:23;3.05;;;1.50;;
76667;SDS011;65585;51.166;16.922;2023-10-31T11:10:17;2.10;;;1.38;;
76667;SDS011;65585;51.166;16.922;2023-10-31T11:12:44;1.55;;;1.27;;
76667;SDS011;65585;51.166;16.922;2023-10-31T11:15:11;1.35;;;1.17;;
76667;SDS011;65585;51.166;16.922;2023-10-31T11:17:43;2.33;;;1.45;;
76667;SDS011;65585;51.166;16.922;2023-10-31T11:20:10;2.05;;;1.23;;
76667;SDS011;65585;51.166;16.922;2023-10-31T11:22:40;1.58;;;1.30;;
76667;SDS011;65585;51.166;16.922;2023-10-31T11:25:08;3.28;;;1.33;;
76667;SDS011;65585;51.166;16.922;2023-10-31T11:27:34;1.90;;;1.20;;
76667;SDS011;65585;51.166;16.922;2023-10-31T11:30:08;1.75;;;1.42;;
76667;SDS011;65585;51.166;16.922;2023-10-31T11:32:48;1.42;;;1.17;;
76667;SDS011;65585;51.166;16.922;2023-10-31T11:35:16;2.80;;;1.48;;
76667;SDS011;65585;51.166;16.922;2023-10-31T11:37:43;2.50;;;1.50;;
76667;SDS011;65585;51.166;16.922;2023-10-31T11:42:44;2.47;;;1.50;;
76667;SDS011;65585;51.166;16.922;2023-10-31T11:45:22;2.20;;;1.50;;
76667;SDS011;65585;51.166;16.922;2023-10-31T11:48:01;1.65;;;1.20;;
76667;SDS011;65585;51.166;16.922;2023-10-31T11:50:30;1.38;;;1.10;;
76667;SDS011;65585;51.166;16.922;2023-10-31T11:55:41;1.80;;;1.60;;
76667;SDS011;65585;51.166;16.922;2023-10-31T11:58:17;1.85;;;1.30;;
76667;SDS011;65585;51.166;16.922;2023-10-31T12:00:51;1.33;;;1.23;;
76667;SDS011;65585;51.166;16.922;2023-10-31T12:03:22;2.28;;;1.50;;
76667;SDS011;65585;51.166;16.922;2023-10-31T12:05:57;2.53;;;1.60;;
76667;SDS011;65585;51.166;16.922;2023-10-31T12:08:26;1.90;;;1.30;;
76667;SDS011;65585;51.166;16.922;2023-10-31T12:13:37;5.88;;;1.55;;
76667;SDS011;65585;51.166;16.922;2023-10-31T12:16:10;3.85;;;1.42;;
76667;SDS011;65585;51.166;16.922;2023-10-31T12:18:38;2.08;;;1.38;;
76667;SDS011;65585;51.166;16.922;2023-10-31T12:21:07;1.58;;;1.30;;
76667;SDS011;65585;51.166;16.922;2023-10-31T12:23:34;1.70;;;1.20;;
76667;SDS011;65585;51.166;16.922;2023-10-31T12:26:00;1.75;;;1.20;;
76667;SDS011;65585;51.166;16.922;2023-10-31T12:28:26;1.42;;;1.10;;
76667;SDS011;65585;51.166;16.922;2023-10-31T12:30:54;1.52;;;1.30;;
76667;SDS011;65585;51.166;16.922;2023-10-31T12:33:20;2.63;;;1.25;;
76667;SDS011;65585;51.166;16.922;2023-10-31T12:35:51;2.63;;;1.50;;
76667;SDS011;65585;51.166;16.922;2023-10-31T12:38:19;3.05;;;1.25;;
76667;SDS011;65585;51.166;16.922;2023-10-31T12:40:45;2.42;;;1.40;;
76667;SDS011;65585;51.166;16.922;2023-10-31T12:43:11;1.60;;;1.08;;
76667;SDS011;65585;51.166;16.922;2023-10-31T12:45:37;2.65;;;1.20;;
76667;SDS011;65585;51.166;16.922;2023-10-31T12:48:07;1.80;;;1.17;;
76667;SDS011;65585;51.166;16.922;2023-10-31T12:50:36;2.47;;;1.10;;
76667;SDS011;65585;51.166;16.922;2023-10-31T12:53:03;2.33;;;1.30;;
76667;SDS011;65585;51.166;16.922;2023-10-31T12:55:30;1.45;;;1.00;;
76667;SDS011;65585;51.166;16.922;2023-10-31T12:57:57;1.80;;;1.20;;
76667;SDS011;65585;51.166;16.922;2023-10-31T13:00:29;1.65;;;1.23;;
76667;SDS011;65585;51.166;16.922;2023-10-31T13:03:08;1.80;;;0.85;;
76667;SDS011;65585;51.166;16.922;2023-10-31T13:05:35;1.17;;;1.05;;
76667;SDS011;65585;51.166;16.922;2023-10-31T13:08:09;1.33;;;1.17;;
76667;SDS011;65585;51.166;16.922;2023-10-31T13:10:39;1.60;;;1.20;;
76667;SDS011;65585;51.166;16.922;2023-10-31T13:13:05;1.33;;;1.00;;
76667;SDS011;65585;51.166;16.922;2023-10-31T13:15:31;1.58;;;1.20;;
76667;SDS011;65585;51.166;16.922;2023-10-31T13:17:58;1.60;;;1.15;;
76667;SDS011;65585;51.166;16.922;2023-10-31T13:20:24;1.10;;;1.00;;
76667;SDS011;65585;51.166;16.922;2023-10-31T13:22:50;1.85;;;1.17;;
76667;SDS011;65585;51.166;16.922;2023-10-31T13:25:16;1.20;;;0.95;;
76667;SDS011;65585;51.166;16.922;2023-10-31T13:27:43;1.13;;;0.85;;
76667;SDS011;65585;51.166;16.922;2023-10-31T13:30:10;1.73;;;1.10;;
76667;SDS011;65585;51.166;16.922;2023-10-31T13:32:37;2.53;;;1.00;;
76667;SDS011;65585;51.166;16.922;2023-10-31T13:35:04;2.33;;;1.42;;
76667;SDS011;65585;51.166;16.922;2023-10-31T13:37:31;1.50;;;1.30;;
76667;SDS011;65585;51.166;16.922;2023-10-31T13:39:56;1.77;;;1.42;;
76667;SDS011;65585;51.166;16.922;2023-10-31T13:42:22;2.28;;;1.30;;
76667;SDS011;65585;51.166;16.922;2023-10-31T13:44:48;1.73;;;1.15;;
76667;SDS011;65585;51.166;16.922;2023-10-31T13:47:15;2.90;;;1.08;;
76667;SDS011;65585;51.166;16.922;2023-10-31T13:49:40;9.32;;;1.42;;
76667;SDS011;65585;51.166;16.922;2023-10-31T13:52:06;1.67;;;1.48;;
76667;SDS011;65585;51.166;16.922;2023-10-31T13:54:32;3.20;;;1.08;;
76667;SDS011;65585;51.166;16.922;2023-10-31T13:56:59;2.53;;;1.10;;
76667;SDS011;65585;51.166;16.922;2023-10-31T13:59:25;1.67;;;1.45;;
76667;SDS011;65585;51.166;16.922;2023-10-31T14:01:51;1.77;;;1.25;;
76667;SDS011;65585;51.166;16.922;2023-10-31T14:04:18;2.10;;;1.30;;
76667;SDS011;65585;51.166;16.922;2023-10-31T14:06:45;3.97;;;1.25;;
76667;SDS011;65585;51.166;16.922;2023-10-31T14:09:11;4.22;;;1.50;;
76667;SDS011;65585;51.166;16.922;2023-10-31T14:11:41;1.80;;;1.40;;
76667;SDS011;65585;51.166;16.922;2023-10-31T14:14:07;1.67;;;1.30;;
76667;SDS011;65585;51.166;16.922;2023-10-31T14:16:36;3.33;;;1.55;;
76667;SDS011;65585;51.166;16.922;2023-10-31T14:19:07;4.38;;;2.03;;
76667;SDS011;65585;51.166;16.922;2023-10-31T14:21:34;2.30;;;1.42;;
76667;SDS011;65585;51.166;16.922;2023-10-31T14:24:00;4.38;;;2.00;;
76667;SDS011;65585;51.166;16.922;2023-10-31T14:26:31;2.30;;;1.55;;
76667;SDS011;65585;51.166;16.922;2023-10-31T14:29:00;3.28;;;1.75;;
76667;SDS011;65585;51.166;16.922;2023-10-31T14:31:26;2.50;;;1.52;;
76667;SDS011;65585;51.166;16.922;2023-10-31T14:33:52;2.25;;;1.60;;
76667;SDS011;65585;51.166;16.922;2023-10-31T14:36:18;3.13;;;1.63;;
76667;SDS011;65585;51.166;16.922;2023-10-31T14:38:44;2.40;;;1.48;;
76667;SDS011;65585;51.166;16.922;2023-10-31T14:41:10;2.95;;;1.48;;
76667;SDS011;65585;51.166;16.922;2023-10-31T14:43:36;2.42;;;1.67;;
76667;SDS011;65585;51.166;16.922;2023-10-31T14:46:03;2.88;;;1.70;;